sensor_id;sensor_type;location;lat;lon;timestamp;temperature;humidity
62912;DHT22;49111;51.028;4.218;2023-12-29T00:01:59;12.10;99.90
62912;DHT22;49111;51.028;4.218;2023-12-29T00:04:28;12.10;99.90
62912;DHT22;49111;51.028;4.218;2023-12-29T00:06:54;12.20;99.90
62912;DHT22;49111;51.028;4.218;2023-12-29T00:09:20;12.30;99.90
62912;DHT22;49111;51.028;4.218;2023-12-29T00:11:50;12.20;99.90
62912;DHT22;49111;51.028;4.218;2023-12-29T00:14:16;12.20;99.90
62912;DHT22;49111;51.028;4.218;2023-12-29T00:16:42;12.20;99.90
62912;DHT22;49111;51.028;4.218;2023-12-29T00:19:10;12.10;99.90
62912;DHT22;49111;51.028;4.218;2023-12-29T00:21:37;12.00;99.90
62912;DHT22;49111;51.028;4.218;2023-12-29T00:24:03;12.00;99.90
62912;DHT22;49111;51.028;4.218;2023-12-29T00:26:29;12.00;99.90
62912;DHT22;49111;51.028;4.218;2023-12-29T00:28:57;12.00;99.90
62912;DHT22;49111;51.028;4.218;2023-12-29T00:31:23;11.80;99.90
62912;DHT22;49111;51.028;4.218;2023-12-29T00:33:51;11.90;99.90
62912;DHT22;49111;51.028;4.218;2023-12-29T00:36:19;11.80;99.90
62912;DHT22;49111;51.028;4.218;2023-12-29T00:38:46;11.90;99.90
62912;DHT22;49111;51.028;4.218;2023-12-29T00:41:12;11.90;99.90
62912;DHT22;49111;51.028;4.218;2023-12-29T00:43:38;11.80;99.90
62912;DHT22;49111;51.028;4.218;2023-12-29T00:46:08;11.80;99.90
62912;DHT22;49111;51.028;4.218;2023-12-29T00:48:36;11.80;99.90
62912;DHT22;49111;51.028;4.218;2023-12-29T00:51:03;11.80;99.90
62912;DHT22;49111;51.028;4.218;2023-12-29T00:53:30;11.70;99.90
62912;DHT22;49111;51.028;4.218;2023-12-29T00:55:59;11.80;99.90
62912;DHT22;49111;51.028;4.218;2023-12-29T00:58:25;11.80;99.90
62912;DHT22;49111;51.028;4.218;2023-12-29T01:00:51;11.80;99.90
62912;DHT22;49111;51.028;4.218;2023-12-29T01:03:17;11.90;99.90
62912;DHT22;49111;51.028;4.218;2023-12-29T01:05:42;11.90;99.90
62912;DHT22;49111;51.028;4.218;2023-12-29T01:08:08;11.90;99.90
62912;DHT22;49111;51.028;4.218;2023-12-29T01:10:35;11.90;99.90
62912;DHT22;49111;51.028;4.218;2023-12-29T01:13:01;11.90;99.90
62912;DHT22;49111;51.028;4.218;2023-12-29T01:15:27;11.80;99.90
62912;DHT22;49111;51.028;4.218;2023-12-29T01:17:54;11.80;99.90
62912;DHT22;49111;51.028;4.218;2023-12-29T01:20:20;11.80;99.90
62912;DHT22;49111;51.028;4.218;2023-12-29T01:22:46;11.90;99.90
62912;DHT22;49111;51.028;4.218;2023-12-29T01:25:11;11.90;99.90
62912;DHT22;49111;51.028;4.218;2023-12-29T01:27:37;11.80;99.90
62912;DHT22;49111;51.028;4.218;2023-12-29T01:30:04;11.80;99.90
62912;DHT22;49111;51.028;4.218;2023-12-29T01:32:30;11.80;99.90
62912;DHT22;49111;51.028;4.218;2023-12-29T01:34:56;11.70;99.90
62912;DHT22;49111;51.028;4.218;2023-12-29T01:37:23;11.80;99.90
62912;DHT22;49111;51.028;4.218;2023-12-29T01:39:49;11.80;99.90
62912;DHT22;49111;51.028;4.218;2023-12-29T01:42:16;11.80;99.90
62912;DHT22;49111;51.028;4.218;2023-12-29T01:44:42;11.70;99.90
62912;DHT22;49111;51.028;4.218;2023-12-29T01:47:14;11.70;99.90
62912;DHT22;49111;51.028;4.218;2023-12-29T01:49:46;11.60;99.90
62912;DHT22;49111;51.028;4.218;2023-12-29T01:52:15;11.70;99.90
62912;DHT22;49111;51.028;4.218;2023-12-29T01:54:43;11.70;99.90
62912;DHT22;49111;51.028;4.218;2023-12-29T01:57:12;11.70;99.90
62912;DHT22;49111;51.028;4.218;2023-12-29T01:59:38;11.60;99.90
62912;DHT22;49111;51.028;4.218;2023-12-29T02:02:04;11.60;99.90
62912;DHT22;49111;51.028;4.218;2023-12-29T02:04:30;11.60;99.90
62912;DHT22;49111;51.028;4.218;2023-12-29T02:06:56;11.70;99.90
62912;DHT22;49111;51.028;4.218;2023-12-29T02:09:25;11.70;99.90
62912;DHT22;49111;51.028;4.218;2023-12-29T02:11:51;11.60;99.90
62912;DHT22;49111;51.028;4.218;2023-12-29T02:14:18;11.60;99.90
62912;DHT22;49111;51.028;4.218;2023-12-29T02:20:03;11.60;99.90
62912;DHT22;49111;51.028;4.218;2023-12-29T02:22:29;11.60;99.90
62912;DHT22;49111;51.028;4.218;2023-12-29T02:24:56;11.70;99.90
62912;DHT22;49111;51.028;4.218;2023-12-29T02:30:02;11.80;99.90
62912;DHT22;49111;51.028;4.218;2023-12-29T02:32:33;11.80;99.90
62912;DHT22;49111;51.028;4.218;2023-12-29T02:35:02;11.80;99.90
62912;DHT22;49111;51.028;4.218;2023-12-29T02:37:29;11.80;99.90
62912;DHT22;49111;51.028;4.218;2023-12-29T02:39:56;11.70;99.90
62912;DHT22;49111;51.028;4.218;2023-12-29T02:42:23;11.60;99.90
62912;DHT22;49111;51.028;4.218;2023-12-29T02:44:49;11.70;99.90
62912;DHT22;49111;51.028;4.218;2023-12-29T02:47:14;11.70;99.90
62912;DHT22;49111;51.028;4.218;2023-12-29T02:49:42;11.70;99.90
62912;DHT22;49111;51.028;4.218;2023-12-29T02:52:08;11.60;99.90
62912;DHT22;49111;51.028;4.218;2023-12-29T02:54:34;11.60;99.90
62912;DHT22;49111;51.028;4.218;2023-12-29T02:57:00;11.70;99.90
62912;DHT22;49111;51.028;4.218;2023-12-29T02:59:26;11.60;99.90
62912;DHT22;49111;51.028;4.218;2023-12-29T03:01:54;11.70;99.90
62912;DHT22;49111;51.028;4.218;2023-12-29T03:04:21;11.60;99.90
62912;DHT22;49111;51.028;4.218;2023-12-29T03:06:46;11.60;99.90
62912;DHT22;49111;51.028;4.218;2023-12-29T03:09:13;11.60;99.90
62912;DHT22;49111;51.028;4.218;2023-12-29T03:11:39;11.60;99.90
62912;DHT22;49111;51.028;4.218;2023-12-29T03:14:05;11.60;99.90
62912;DHT22;49111;51.028;4.218;2023-12-29T03:16:31;11.50;99.90
62912;DHT22;49111;51.028;4.218;2023-12-29T03:18:57;11.50;99.90
62912;DHT22;49111;51.028;4.218;2023-12-29T03:21:23;11.50;99.90
62912;DHT22;49111;51.028;4.218;2023-12-29T03:23:51;11.50;99.90
62912;DHT22;49111;51.028;4.218;2023-12-29T03:26:17;11.60;99.90
62912;DHT22;49111;51.028;4.218;2023-12-29T03:28:43;11.50;99.90
62912;DHT22;49111;51.028;4.218;2023-12-29T03:31:10;11.50;99.90
62912;DHT22;49111;51.028;4.218;2023-12-29T03:33:36;11.50;99.90
62912;DHT22;49111;51.028;4.218;2023-12-29T03:36:02;11.50;99.90
62912;DHT22;49111;51.028;4.218;2023-12-29T03:38:28;11.50;99.90
62912;DHT22;49111;51.028;4.218;2023-12-29T03:40:54;11.50;99.90
62912;DHT22;49111;51.028;4.218;2023-12-29T03:43:20;11.40;99.90
62912;DHT22;49111;51.028;4.218;2023-12-29T03:45:46;11.30;99.90
62912;DHT22;49111;51.028;4.218;2023-12-29T03:48:11;11.20;99.90
62912;DHT22;49111;51.028;4.218;2023-12-29T03:50:38;11.30;99.90
62912;DHT22;49111;51.028;4.218;2023-12-29T03:53:04;11.30;99.90
62912;DHT22;49111;51.028;4.218;2023-12-29T03:55:30;11.30;99.90
62912;DHT22;49111;51.028;4.218;2023-12-29T03:57:55;11.30;99.90
62912;DHT22;49111;51.028;4.218;2023-12-29T04:00:22;11.40;99.90
62912;DHT22;49111;51.028;4.218;2023-12-29T04:02:49;11.50;99.90
62912;DHT22;49111;51.028;4.218;2023-12-29T04:05:15;11.40;99.90
62912;DHT22;49111;51.028;4.218;2023-12-29T04:07:41;11.40;99.90
62912;DHT22;49111;51.028;4.218;2023-12-29T04:10:08;11.40;99.90
62912;DHT22;49111;51.028;4.218;2023-12-29T04:12:35;11.30;99.90
62912;DHT22;49111;51.028;4.218;2023-12-29T04:15:01;11.40;99.90
62912;DHT22;49111;51.028;4.218;2023-12-29T04:17:28;11.40;99.90
62912;DHT22;49111;51.028;4.218;2023-12-29T04:19:54;11.40;99.90
62912;DHT22;49111;51.028;4.218;2023-12-29T04:22:20;11.50;99.90
62912;DHT22;49111;51.028;4.218;2023-12-29T04:24:46;11.40;99.90
62912;DHT22;49111;51.028;4.218;2023-12-29T04:27:13;11.40;99.90
62912;DHT22;49111;51.028;4.218;2023-12-29T04:29:40;11.40;99.90
62912;DHT22;49111;51.028;4.218;2023-12-29T04:32:06;11.40;99.90
62912;DHT22;49111;51.028;4.218;2023-12-29T04:34:32;11.40;99.90
62912;DHT22;49111;51.028;4.218;2023-12-29T04:36:58;11.40;99.90
62912;DHT22;49111;51.028;4.218;2023-12-29T04:39:25;11.40;99.90
62912;DHT22;49111;51.028;4.218;2023-12-29T04:41:51;11.50;99.90
62912;DHT22;49111;51.028;4.218;2023-12-29T04:44:17;11.50;99.90
62912;DHT22;49111;51.028;4.218;2023-12-29T04:46:43;11.40;99.90
62912;DHT22;49111;51.028;4.218;2023-12-29T04:49:09;11.30;99.90
62912;DHT22;49111;51.028;4.218;2023-12-29T04:51:35;11.20;99.90
62912;DHT22;49111;51.028;4.218;2023-12-29T04:54:01;11.40;99.90
62912;DHT22;49111;51.028;4.218;2023-12-29T04:56:27;11.40;99.90
62912;DHT22;49111;51.028;4.218;2023-12-29T04:58:53;11.40;99.90
62912;DHT22;49111;51.028;4.218;2023-12-29T05:01:19;11.40;99.90
62912;DHT22;49111;51.028;4.218;2023-12-29T05:03:45;11.40;99.90
62912;DHT22;49111;51.028;4.218;2023-12-29T05:06:11;11.30;99.90
62912;DHT22;49111;51.028;4.218;2023-12-29T05:08:37;11.20;99.90
62912;DHT22;49111;51.028;4.218;2023-12-29T05:11:03;11.30;99.90
62912;DHT22;49111;51.028;4.218;2023-12-29T05:13:29;11.40;99.90
62912;DHT22;49111;51.028;4.218;2023-12-29T05:15:55;11.50;99.90
62912;DHT22;49111;51.028;4.218;2023-12-29T05:18:21;11.50;99.90
62912;DHT22;49111;51.028;4.218;2023-12-29T05:20:47;11.50;99.90
62912;DHT22;49111;51.028;4.218;2023-12-29T05:23:13;11.50;99.90
62912;DHT22;49111;51.028;4.218;2023-12-29T05:25:39;11.40;99.90
62912;DHT22;49111;51.028;4.218;2023-12-29T05:28:05;11.40;99.90
62912;DHT22;49111;51.028;4.218;2023-12-29T05:30:31;11.50;99.90
62912;DHT22;49111;51.028;4.218;2023-12-29T05:32:58;11.60;99.90
62912;DHT22;49111;51.028;4.218;2023-12-29T05:35:23;11.60;99.90
62912;DHT22;49111;51.028;4.218;2023-12-29T05:37:49;11.50;99.90
62912;DHT22;49111;51.028;4.218;2023-12-29T05:40:16;11.50;99.90
62912;DHT22;49111;51.028;4.218;2023-12-29T05:42:42;11.60;99.90
62912;DHT22;49111;51.028;4.218;2023-12-29T05:45:08;11.60;99.90
62912;DHT22;49111;51.028;4.218;2023-12-29T05:47:34;11.60;99.90
62912;DHT22;49111;51.028;4.218;2023-12-29T05:50:00;11.60;99.90
62912;DHT22;49111;51.028;4.218;2023-12-29T05:52:26;11.60;99.90
62912;DHT22;49111;51.028;4.218;2023-12-29T05:54:52;11.50;99.90
62912;DHT22;49111;51.028;4.218;2023-12-29T05:57:18;11.50;99.90
62912;DHT22;49111;51.028;4.218;2023-12-29T05:59:45;11.60;99.90
62912;DHT22;49111;51.028;4.218;2023-12-29T06:02:11;11.50;99.90
62912;DHT22;49111;51.028;4.218;2023-12-29T06:04:36;11.60;99.90
62912;DHT22;49111;51.028;4.218;2023-12-29T06:07:02;11.60;99.90
62912;DHT22;49111;51.028;4.218;2023-12-29T06:09:28;11.50;99.90
62912;DHT22;49111;51.028;4.218;2023-12-29T06:11:54;11.60;99.90
62912;DHT22;49111;51.028;4.218;2023-12-29T06:14:20;11.50;99.90
62912;DHT22;49111;51.028;4.218;2023-12-29T06:16:46;11.50;99.90
62912;DHT22;49111;51.028;4.218;2023-12-29T06:19:12;11.40;99.90
62912;DHT22;49111;51.028;4.218;2023-12-29T06:21:42;11.40;99.90
62912;DHT22;49111;51.028;4.218;2023-12-29T06:24:11;11.40;99.90
62912;DHT22;49111;51.028;4.218;2023-12-29T06:26:37;11.40;99.90
62912;DHT22;49111;51.028;4.218;2023-12-29T06:29:11;11.40;99.90
62912;DHT22;49111;51.028;4.218;2023-12-29T06:31:40;11.40;99.90
62912;DHT22;49111;51.028;4.218;2023-12-29T06:34:07;11.30;99.90
62912;DHT22;49111;51.028;4.218;2023-12-29T06:36:33;11.30;99.90
62912;DHT22;49111;51.028;4.218;2023-12-29T06:38:59;11.20;99.90
62912;DHT22;49111;51.028;4.218;2023-12-29T06:41:25;11.20;99.90
62912;DHT22;49111;51.028;4.218;2023-12-29T06:43:51;11.20;99.90
62912;DHT22;49111;51.028;4.218;2023-12-29T06:46:17;11.10;99.90
62912;DHT22;49111;51.028;4.218;2023-12-29T06:48:43;11.10;99.90
62912;DHT22;49111;51.028;4.218;2023-12-29T06:51:09;10.90;99.90
62912;DHT22;49111;51.028;4.218;2023-12-29T06:53:37;10.90;99.90
62912;DHT22;49111;51.028;4.218;2023-12-29T06:56:03;10.80;99.90
62912;DHT22;49111;51.028;4.218;2023-12-29T06:58:30;10.80;99.90
62912;DHT22;49111;51.028;4.218;2023-12-29T07:00:56;10.80;99.90
62912;DHT22;49111;51.028;4.218;2023-12-29T07:03:22;10.90;99.90
62912;DHT22;49111;51.028;4.218;2023-12-29T07:05:48;10.90;99.90
62912;DHT22;49111;51.028;4.218;2023-12-29T07:08:14;10.90;99.90
62912;DHT22;49111;51.028;4.218;2023-12-29T07:10:40;10.90;99.90
62912;DHT22;49111;51.028;4.218;2023-12-29T07:13:06;10.80;99.90
62912;DHT22;49111;51.028;4.218;2023-12-29T07:15:32;10.80;99.90
62912;DHT22;49111;51.028;4.218;2023-12-29T07:17:57;10.80;99.90
62912;DHT22;49111;51.028;4.218;2023-12-29T07:20:23;10.80;99.90
62912;DHT22;49111;51.028;4.218;2023-12-29T07:22:49;10.80;99.90
62912;DHT22;49111;51.028;4.218;2023-12-29T07:25:15;10.90;99.90
62912;DHT22;49111;51.028;4.218;2023-12-29T07:27:41;10.90;99.90
62912;DHT22;49111;51.028;4.218;2023-12-29T07:30:08;10.90;99.90
62912;DHT22;49111;51.028;4.218;2023-12-29T07:32:34;10.80;99.90
62912;DHT22;49111;51.028;4.218;2023-12-29T07:35:00;10.80;99.90
62912;DHT22;49111;51.028;4.218;2023-12-29T07:37:26;10.80;99.90
62912;DHT22;49111;51.028;4.218;2023-12-29T07:39:52;10.90;99.90
62912;DHT22;49111;51.028;4.218;2023-12-29T07:42:17;10.90;99.90
62912;DHT22;49111;51.028;4.218;2023-12-29T07:44:43;10.90;99.90
62912;DHT22;49111;51.028;4.218;2023-12-29T07:47:09;10.80;99.90
62912;DHT22;49111;51.028;4.218;2023-12-29T07:49:41;10.80;99.90
62912;DHT22;49111;51.028;4.218;2023-12-29T07:52:11;10.80;99.90
62912;DHT22;49111;51.028;4.218;2023-12-29T07:54:37;10.90;99.90
62912;DHT22;49111;51.028;4.218;2023-12-29T07:57:03;10.80;99.90
62912;DHT22;49111;51.028;4.218;2023-12-29T07:59:32;10.90;99.90
62912;DHT22;49111;51.028;4.218;2023-12-29T08:01:58;10.90;99.90
62912;DHT22;49111;51.028;4.218;2023-12-29T08:04:24;10.90;99.90
62912;DHT22;49111;51.028;4.218;2023-12-29T08:06:50;10.80;99.90
62912;DHT22;49111;51.028;4.218;2023-12-29T08:09:15;10.90;99.90
62912;DHT22;49111;51.028;4.218;2023-12-29T08:11:44;10.80;99.90
62912;DHT22;49111;51.028;4.218;2023-12-29T08:14:10;10.90;99.90
62912;DHT22;49111;51.028;4.218;2023-12-29T08:16:40;11.00;99.90
62912;DHT22;49111;51.028;4.218;2023-12-29T08:19:06;11.00;99.90
62912;DHT22;49111;51.028;4.218;2023-12-29T08:21:33;10.90;99.90
62912;DHT22;49111;51.028;4.218;2023-12-29T08:23:59;10.90;99.90
62912;DHT22;49111;51.028;4.218;2023-12-29T08:26:25;11.00;99.90
62912;DHT22;49111;51.028;4.218;2023-12-29T08:28:51;11.00;99.90
62912;DHT22;49111;51.028;4.218;2023-12-29T08:31:19;10.90;99.90
62912;DHT22;49111;51.028;4.218;2023-12-29T08:33:45;10.90;99.90
62912;DHT22;49111;51.028;4.218;2023-12-29T08:36:12;11.00;99.90
62912;DHT22;49111;51.028;4.218;2023-12-29T08:38:38;11.00;99.90
62912;DHT22;49111;51.028;4.218;2023-12-29T08:41:04;11.00;99.90
62912;DHT22;49111;51.028;4.218;2023-12-29T08:43:30;11.00;99.90
62912;DHT22;49111;51.028;4.218;2023-12-29T08:45:56;10.90;99.90
62912;DHT22;49111;51.028;4.218;2023-12-29T08:48:22;10.80;99.90
62912;DHT22;49111;51.028;4.218;2023-12-29T08:50:49;10.70;99.90
62912;DHT22;49111;51.028;4.218;2023-12-29T08:53:15;10.70;99.90
62912;DHT22;49111;51.028;4.218;2023-12-29T08:55:44;10.70;99.90
62912;DHT22;49111;51.028;4.218;2023-12-29T08:58:09;10.80;99.90
62912;DHT22;49111;51.028;4.218;2023-12-29T09:00:35;10.80;99.90
62912;DHT22;49111;51.028;4.218;2023-12-29T09:03:01;10.90;99.90
62912;DHT22;49111;51.028;4.218;2023-12-29T09:05:27;11.00;99.90
62912;DHT22;49111;51.028;4.218;2023-12-29T09:07:53;11.10;99.90
62912;DHT22;49111;51.028;4.218;2023-12-29T09:10:21;11.10;99.90
62912;DHT22;49111;51.028;4.218;2023-12-29T09:12:48;11.10;99.90
62912;DHT22;49111;51.028;4.218;2023-12-29T09:15:15;11.20;99.90
62912;DHT22;49111;51.028;4.218;2023-12-29T09:17:41;11.20;99.90
62912;DHT22;49111;51.028;4.218;2023-12-29T09:20:08;11.30;99.90
62912;DHT22;49111;51.028;4.218;2023-12-29T09:22:34;11.30;99.90
62912;DHT22;49111;51.028;4.218;2023-12-29T09:25:00;11.40;99.90
62912;DHT22;49111;51.028;4.218;2023-12-29T09:27:26;11.40;99.90
62912;DHT22;49111;51.028;4.218;2023-12-29T09:29:54;11.40;99.90
62912;DHT22;49111;51.028;4.218;2023-12-29T09:32:20;11.50;99.90
62912;DHT22;49111;51.028;4.218;2023-12-29T09:34:46;11.40;99.90
62912;DHT22;49111;51.028;4.218;2023-12-29T09:37:11;11.40;99.90
62912;DHT22;49111;51.028;4.218;2023-12-29T09:39:37;11.40;99.90
62912;DHT22;49111;51.028;4.218;2023-12-29T09:42:03;11.50;99.90
62912;DHT22;49111;51.028;4.218;2023-12-29T09:44:31;11.50;99.90
62912;DHT22;49111;51.028;4.218;2023-12-29T09:47:04;11.50;99.90
62912;DHT22;49111;51.028;4.218;2023-12-29T09:49:37;11.50;99.90
62912;DHT22;49111;51.028;4.218;2023-12-29T09:52:11;11.40;99.90
62912;DHT22;49111;51.028;4.218;2023-12-29T09:54:39;11.50;99.90
62912;DHT22;49111;51.028;4.218;2023-12-29T09:57:07;11.50;99.90
62912;DHT22;49111;51.028;4.218;2023-12-29T09:59:35;11.50;99.90
62912;DHT22;49111;51.028;4.218;2023-12-29T10:02:15;11.40;99.90
62912;DHT22;49111;51.028;4.218;2023-12-29T10:04:44;11.40;99.90
62912;DHT22;49111;51.028;4.218;2023-12-29T10:07:20;11.40;99.90
62912;DHT22;49111;51.028;4.218;2023-12-29T10:10:01;11.30;99.90
62912;DHT22;49111;51.028;4.218;2023-12-29T10:12:31;11.30;99.90
62912;DHT22;49111;51.028;4.218;2023-12-29T10:15:06;11.40;99.90
62912;DHT22;49111;51.028;4.218;2023-12-29T10:17:57;11.30;99.90
62912;DHT22;49111;51.028;4.218;2023-12-29T10:23:20;11.00;99.90
62912;DHT22;49111;51.028;4.218;2023-12-29T10:25:48;11.10;99.90
62912;DHT22;49111;51.028;4.218;2023-12-29T10:28:15;11.10;99.90
62912;DHT22;49111;51.028;4.218;2023-12-29T10:30:43;11.20;99.90
62912;DHT22;49111;51.028;4.218;2023-12-29T10:33:08;11.30;99.90
62912;DHT22;49111;51.028;4.218;2023-12-29T10:35:36;11.30;99.90
62912;DHT22;49111;51.028;4.218;2023-12-29T10:38:12;11.40;99.90
62912;DHT22;49111;51.028;4.218;2023-12-29T10:40:40;11.50;99.90
62912;DHT22;49111;51.028;4.218;2023-12-29T10:43:07;11.50;99.90
62912;DHT22;49111;51.028;4.218;2023-12-29T10:45:35;11.60;99.90
62912;DHT22;49111;51.028;4.218;2023-12-29T10:48:05;11.60;99.90
62912;DHT22;49111;51.028;4.218;2023-12-29T10:50:45;11.80;99.90
62912;DHT22;49111;51.028;4.218;2023-12-29T10:53:12;11.90;99.90
62912;DHT22;49111;51.028;4.218;2023-12-29T10:55:38;12.00;99.90
62912;DHT22;49111;51.028;4.218;2023-12-29T10:58:05;12.00;99.90
62912;DHT22;49111;51.028;4.218;2023-12-29T11:00:31;12.10;99.90
62912;DHT22;49111;51.028;4.218;2023-12-29T11:02:58;12.10;99.90
62912;DHT22;49111;51.028;4.218;2023-12-29T11:05:26;12.10;99.90
62912;DHT22;49111;51.028;4.218;2023-12-29T11:07:53;12.10;99.90
62912;DHT22;49111;51.028;4.218;2023-12-29T11:10:21;12.00;99.90
62912;DHT22;49111;51.028;4.218;2023-12-29T11:12:48;12.10;99.90
62912;DHT22;49111;51.028;4.218;2023-12-29T11:15:15;12.10;99.90
62912;DHT22;49111;51.028;4.218;2023-12-29T11:17:43;12.00;99.90
62912;DHT22;49111;51.028;4.218;2023-12-29T11:20:18;12.10;99.90
62912;DHT22;49111;51.028;4.218;2023-12-29T11:22:47;12.00;99.90
62912;DHT22;49111;51.028;4.218;2023-12-29T11:25:14;12.00;99.90
62912;DHT22;49111;51.028;4.218;2023-12-29T11:27:43;12.10;99.90
62912;DHT22;49111;51.028;4.218;2023-12-29T11:30:11;12.10;99.90
62912;DHT22;49111;51.028;4.218;2023-12-29T11:32:49;12.10;99.90
62912;DHT22;49111;51.028;4.218;2023-12-29T11:38:23;12.10;99.90
62912;DHT22;49111;51.028;4.218;2023-12-29T11:41:13;12.10;99.90
62912;DHT22;49111;51.028;4.218;2023-12-29T11:43:41;12.20;99.90
62912;DHT22;49111;51.028;4.218;2023-12-29T11:46:16;12.20;99.90
62912;DHT22;49111;51.028;4.218;2023-12-29T11:48:56;12.20;99.90
62912;DHT22;49111;51.028;4.218;2023-12-29T11:51:33;12.30;99.90
62912;DHT22;49111;51.028;4.218;2023-12-29T11:54:03;12.40;99.90
62912;DHT22;49111;51.028;4.218;2023-12-29T11:56:38;12.40;99.90
62912;DHT22;49111;51.028;4.218;2023-12-29T12:01:43;12.40;99.90
62912;DHT22;49111;51.028;4.218;2023-12-29T12:13:59;12.20;99.90
62912;DHT22;49111;51.028;4.218;2023-12-29T12:19:14;12.10;99.90
62912;DHT22;49111;51.028;4.218;2023-12-29T12:21:57;12.10;99.90
62912;DHT22;49111;51.028;4.218;2023-12-29T12:24:30;12.10;99.90
62912;DHT22;49111;51.028;4.218;2023-12-29T12:34:25;12.10;99.90
62912;DHT22;49111;51.028;4.218;2023-12-29T12:40:11;12.10;99.90
62912;DHT22;49111;51.028;4.218;2023-12-29T12:42:39;12.00;99.90
62912;DHT22;49111;51.028;4.218;2023-12-29T12:45:17;12.00;99.90
62912;DHT22;49111;51.028;4.218;2023-12-29T12:47:55;12.00;99.90
62912;DHT22;49111;51.028;4.218;2023-12-29T12:50:29;12.10;99.90
62912;DHT22;49111;51.028;4.218;2023-12-29T12:52:57;12.00;99.90
62912;DHT22;49111;51.028;4.218;2023-12-29T12:55:26;11.90;99.90
62912;DHT22;49111;51.028;4.218;2023-12-29T13:03:56;11.90;99.90
62912;DHT22;49111;51.028;4.218;2023-12-29T13:06:25;12.00;99.90
62912;DHT22;49111;51.028;4.218;2023-12-29T13:08:52;12.00;99.90
62912;DHT22;49111;51.028;4.218;2023-12-29T13:11:37;12.00;99.90
62912;DHT22;49111;51.028;4.218;2023-12-29T13:14:34;12.00;99.90
62912;DHT22;49111;51.028;4.218;2023-12-29T13:17:07;12.10;99.90
62912;DHT22;49111;51.028;4.218;2023-12-29T13:19:38;12.10;99.90
62912;DHT22;49111;51.028;4.218;2023-12-29T13:22:26;12.10;99.90
62912;DHT22;49111;51.028;4.218;2023-12-29T13:24:58;12.00;99.90
62912;DHT22;49111;51.028;4.218;2023-12-29T13:27:27;12.00;99.90
62912;DHT22;49111;51.028;4.218;2023-12-29T13:30:04;12.00;99.90
62912;DHT22;49111;51.028;4.218;2023-12-29T13:32:32;12.00;99.90
62912;DHT22;49111;51.028;4.218;2023-12-29T13:35:34;12.00;99.90
62912;DHT22;49111;51.028;4.218;2023-12-29T13:38:33;12.00;99.90
62912;DHT22;49111;51.028;4.218;2023-12-29T13:41:14;12.00;99.90
62912;DHT22;49111;51.028;4.218;2023-12-29T13:44:01;12.00;99.90
62912;DHT22;49111;51.028;4.218;2023-12-29T13:46:31;11.90;99.90
62912;DHT22;49111;51.028;4.218;2023-12-29T13:49:03;12.10;99.90
62912;DHT22;49111;51.028;4.218;2023-12-29T13:51:31;12.10;99.90
62912;DHT22;49111;51.028;4.218;2023-12-29T13:54:00;12.20;99.90
62912;DHT22;49111;51.028;4.218;2023-12-29T13:56:26;11.90;99.90
62912;DHT22;49111;51.028;4.218;2023-12-29T13:58:52;12.20;99.90
62912;DHT22;49111;51.028;4.218;2023-12-29T14:01:18;12.20;99.90
62912;DHT22;49111;51.028;4.218;2023-12-29T14:04:00;12.20;99.90
62912;DHT22;49111;51.028;4.218;2023-12-29T14:06:51;12.30;99.90
62912;DHT22;49111;51.028;4.218;2023-12-29T14:09:19;12.30;99.90
62912;DHT22;49111;51.028;4.218;2023-12-29T14:11:46;12.30;99.90
62912;DHT22;49111;51.028;4.218;2023-12-29T14:14:13;12.20;99.90
62912;DHT22;49111;51.028;4.218;2023-12-29T14:16:40;12.20;99.90
62912;DHT22;49111;51.028;4.218;2023-12-29T14:19:06;12.20;99.90
62912;DHT22;49111;51.028;4.218;2023-12-29T14:21:33;12.10;99.90
62912;DHT22;49111;51.028;4.218;2023-12-29T14:26:36;12.20;99.90
62912;DHT22;49111;51.028;4.218;2023-12-29T14:29:03;12.10;99.90
62912;DHT22;49111;51.028;4.218;2023-12-29T14:31:32;12.00;99.90
62912;DHT22;49111;51.028;4.218;2023-12-29T14:34:00;12.00;99.90
62912;DHT22;49111;51.028;4.218;2023-12-29T14:36:26;12.10;99.90
62912;DHT22;49111;51.028;4.218;2023-12-29T14:38:52;11.90;99.90
62912;DHT22;49111;51.028;4.218;2023-12-29T14:41:18;11.70;99.90
62912;DHT22;49111;51.028;4.218;2023-12-29T14:43:44;11.50;99.90
62912;DHT22;49111;51.028;4.218;2023-12-29T14:46:09;11.40;99.90
62912;DHT22;49111;51.028;4.218;2023-12-29T14:48:35;11.40;99.90
62912;DHT22;49111;51.028;4.218;2023-12-29T14:51:01;11.40;99.90
62912;DHT22;49111;51.028;4.218;2023-12-29T14:53:28;11.50;99.90
62912;DHT22;49111;51.028;4.218;2023-12-29T14:55:54;11.60;99.90
62912;DHT22;49111;51.028;4.218;2023-12-29T14:58:20;11.60;99.90
62912;DHT22;49111;51.028;4.218;2023-12-29T15:00:46;11.70;99.90
62912;DHT22;49111;51.028;4.218;2023-12-29T15:03:13;11.70;99.90
62912;DHT22;49111;51.028;4.218;2023-12-29T15:05:41;11.60;99.90
62912;DHT22;49111;51.028;4.218;2023-12-29T15:08:10;11.50;99.90
62912;DHT22;49111;51.028;4.218;2023-12-29T15:10:36;11.50;99.90
62912;DHT22;49111;51.028;4.218;2023-12-29T15:13:02;11.50;99.90
62912;DHT22;49111;51.028;4.218;2023-12-29T15:15:28;11.50;99.90
62912;DHT22;49111;51.028;4.218;2023-12-29T15:17:54;11.50;99.90
62912;DHT22;49111;51.028;4.218;2023-12-29T15:20:20;11.60;99.90
62912;DHT22;49111;51.028;4.218;2023-12-29T15:22:45;11.60;99.90
62912;DHT22;49111;51.028;4.218;2023-12-29T15:25:11;11.70;99.90
62912;DHT22;49111;51.028;4.218;2023-12-29T15:27:37;11.70;99.90
62912;DHT22;49111;51.028;4.218;2023-12-29T15:30:03;11.70;99.90
62912;DHT22;49111;51.028;4.218;2023-12-29T15:32:29;11.70;99.90
62912;DHT22;49111;51.028;4.218;2023-12-29T15:34:55;11.80;99.90
62912;DHT22;49111;51.028;4.218;2023-12-29T15:37:21;11.80;99.90
62912;DHT22;49111;51.028;4.218;2023-12-29T15:39:47;11.80;99.90
62912;DHT22;49111;51.028;4.218;2023-12-29T15:42:13;11.90;99.90
62912;DHT22;49111;51.028;4.218;2023-12-29T15:44:38;11.80;99.90
62912;DHT22;49111;51.028;4.218;2023-12-29T15:47:04;11.90;99.90
62912;DHT22;49111;51.028;4.218;2023-12-29T15:49:30;11.90;99.90
62912;DHT22;49111;51.028;4.218;2023-12-29T15:51:56;11.80;99.90
62912;DHT22;49111;51.028;4.218;2023-12-29T15:54:23;11.90;99.90
62912;DHT22;49111;51.028;4.218;2023-12-29T15:56:49;11.90;99.90
62912;DHT22;49111;51.028;4.218;2023-12-29T15:59:15;11.90;99.90
62912;DHT22;49111;51.028;4.218;2023-12-29T16:01:41;11.90;99.90
62912;DHT22;49111;51.028;4.218;2023-12-29T16:04:07;11.80;99.90
62912;DHT22;49111;51.028;4.218;2023-12-29T16:06:33;11.80;99.90
62912;DHT22;49111;51.028;4.218;2023-12-29T16:09:02;11.90;99.90
62912;DHT22;49111;51.028;4.218;2023-12-29T16:11:30;11.90;99.90
62912;DHT22;49111;51.028;4.218;2023-12-29T16:13:59;11.90;99.90
62912;DHT22;49111;51.028;4.218;2023-12-29T16:16:27;11.80;99.90
62912;DHT22;49111;51.028;4.218;2023-12-29T16:18:57;11.80;99.90
62912;DHT22;49111;51.028;4.218;2023-12-29T16:21:23;11.70;99.90